sensor_id;sensor_type;location;lat;lon;timestamp;P1;durP1;ratioP1;P2;durP2;ratioP2
10212;SDS011;5150;51.400;6.692;2022-09-14T00:01:38;4.68;;;2.88;;
10212;SDS011;5150;51.400;6.692;2022-09-14T00:05:01;3.60;;;2.25;;
10212;SDS011;5150;51.400;6.692;2022-09-14T00:08:25;5.57;;;2.97;;
10212;SDS011;5150;51.400;6.692;2022-09-14T00:11:48;5.70;;;2.83;;
10212;SDS011;5150;51.400;6.692;2022-09-14T00:15:13;4.53;;;2.33;;
10212;SDS011;5150;51.400;6.692;2022-09-14T00:18:36;5.40;;;1.95;;
10212;SDS011;5150;51.400;6.692;2022-09-14T00:21:58;4.25;;;2.42;;
10212;SDS011;5150;51.400;6.692;2022-09-14T00:25:21;3.17;;;2.15;;
10212;SDS011;5150;51.400;6.692;2022-09-14T00:28:47;6.05;;;2.17;;
10212;SDS011;5150;51.400;6.692;2022-09-14T00:32:12;3.72;;;2.55;;
10212;SDS011;5150;51.400;6.692;2022-09-14T00:35:36;2.55;;;2.35;;
10212;SDS011;5150;51.400;6.692;2022-09-14T00:38:58;7.15;;;2.45;;
10212;SDS011;5150;51.400;6.692;2022-09-14T00:42:22;5.22;;;2.22;;
10212;SDS011;5150;51.400;6.692;2022-09-14T00:45:45;9.52;;;2.47;;
10212;SDS011;5150;51.400;6.692;2022-09-14T00:49:10;5.68;;;1.98;;
10212;SDS011;5150;51.400;6.692;2022-09-14T00:52:37;6.53;;;2.28;;
10212;SDS011;5150;51.400;6.692;2022-09-14T00:56:03;5.95;;;2.90;;
10212;SDS011;5150;51.400;6.692;2022-09-14T00:59:26;9.68;;;2.58;;
10212;SDS011;5150;51.400;6.692;2022-09-14T01:02:52;5.15;;;3.05;;
10212;SDS011;5150;51.400;6.692;2022-09-14T01:06:20;5.95;;;2.50;;
10212;SDS011;5150;51.400;6.692;2022-09-14T01:09:51;3.70;;;2.00;;
10212;SDS011;5150;51.400;6.692;2022-09-14T01:13:23;2.38;;;2.10;;
10212;SDS011;5150;51.400;6.692;2022-09-14T01:16:56;3.63;;;1.85;;
10212;SDS011;5150;51.400;6.692;2022-09-14T01:20:26;3.60;;;2.42;;
10212;SDS011;5150;51.400;6.692;2022-09-14T01:23:58;4.35;;;2.72;;
10212;SDS011;5150;51.400;6.692;2022-09-14T01:27:32;6.25;;;2.63;;
10212;SDS011;5150;51.400;6.692;2022-09-14T01:31:02;5.68;;;2.50;;
10212;SDS011;5150;51.400;6.692;2022-09-14T01:34:33;2.88;;;2.03;;
10212;SDS011;5150;51.400;6.692;2022-09-14T01:38:00;4.30;;;1.88;;
10212;SDS011;5150;51.400;6.692;2022-09-14T01:41:26;7.65;;;2.60;;
10212;SDS011;5150;51.400;6.692;2022-09-14T01:44:54;4.85;;;2.20;;
10212;SDS011;5150;51.400;6.692;2022-09-14T01:48:21;6.68;;;2.58;;
10212;SDS011;5150;51.400;6.692;2022-09-14T01:51:49;4.45;;;2.50;;
10212;SDS011;5150;51.400;6.692;2022-09-14T01:55:17;4.40;;;2.10;;
10212;SDS011;5150;51.400;6.692;2022-09-14T01:58:44;3.58;;;2.00;;
10212;SDS011;5150;51.400;6.692;2022-09-14T02:02:12;2.65;;;2.17;;
10212;SDS011;5150;51.400;6.692;2022-09-14T02:05:39;4.78;;;2.05;;
10212;SDS011;5150;51.400;6.692;2022-09-14T02:09:06;2.55;;;2.08;;
10212;SDS011;5150;51.400;6.692;2022-09-14T02:12:32;7.15;;;2.33;;
10212;SDS011;5150;51.400;6.692;2022-09-14T02:15:55;3.97;;;2.00;;
10212;SDS011;5150;51.400;6.692;2022-09-14T02:19:19;4.25;;;2.05;;
10212;SDS011;5150;51.400;6.692;2022-09-14T02:22:44;5.90;;;2.35;;
10212;SDS011;5150;51.400;6.692;2022-09-14T02:26:07;4.05;;;2.50;;
10212;SDS011;5150;51.400;6.692;2022-09-14T02:29:32;3.38;;;2.10;;
10212;SDS011;5150;51.400;6.692;2022-09-14T02:32:58;7.15;;;2.20;;
10212;SDS011;5150;51.400;6.692;2022-09-14T02:36:31;4.78;;;2.53;;
10212;SDS011;5150;51.400;6.692;2022-09-14T02:40:00;2.15;;;2.00;;
10212;SDS011;5150;51.400;6.692;2022-09-14T02:43:31;2.85;;;1.77;;
10212;SDS011;5150;51.400;6.692;2022-09-14T02:47:02;4.18;;;1.80;;
10212;SDS011;5150;51.400;6.692;2022-09-14T02:50:33;4.20;;;1.80;;
10212;SDS011;5150;51.400;6.692;2022-09-14T02:54:02;3.05;;;2.22;;
10212;SDS011;5150;51.400;6.692;2022-09-14T02:57:29;7.88;;;2.03;;
10212;SDS011;5150;51.400;6.692;2022-09-14T03:00:52;3.65;;;2.03;;
10212;SDS011;5150;51.400;6.692;2022-09-14T03:04:15;3.17;;;1.58;;
10212;SDS011;5150;51.400;6.692;2022-09-14T03:07:38;4.22;;;1.88;;
10212;SDS011;5150;51.400;6.692;2022-09-14T03:11:02;3.63;;;1.88;;
10212;SDS011;5150;51.400;6.692;2022-09-14T03:14:26;5.45;;;1.83;;
10212;SDS011;5150;51.400;6.692;2022-09-14T03:17:49;5.35;;;1.73;;
10212;SDS011;5150;51.400;6.692;2022-09-14T03:21:13;4.05;;;2.10;;
10212;SDS011;5150;51.400;6.692;2022-09-14T03:24:37;4.45;;;1.92;;
10212;SDS011;5150;51.400;6.692;2022-09-14T03:28:01;2.03;;;1.40;;
10212;SDS011;5150;51.400;6.692;2022-09-14T03:31:25;2.78;;;2.08;;
10212;SDS011;5150;51.400;6.692;2022-09-14T03:34:48;6.30;;;2.22;;
10212;SDS011;5150;51.400;6.692;2022-09-14T03:38:11;2.53;;;1.60;;
10212;SDS011;5150;51.400;6.692;2022-09-14T03:41:38;2.28;;;2.00;;
10212;SDS011;5150;51.400;6.692;2022-09-14T03:45:06;3.47;;;1.73;;
10212;SDS011;5150;51.400;6.692;2022-09-14T03:48:30;2.75;;;1.75;;
10212;SDS011;5150;51.400;6.692;2022-09-14T03:51:53;5.25;;;2.55;;
10212;SDS011;5150;51.400;6.692;2022-09-14T03:55:20;3.85;;;1.73;;
10212;SDS011;5150;51.400;6.692;2022-09-14T03:58:43;2.75;;;2.15;;
10212;SDS011;5150;51.400;6.692;2022-09-14T04:02:08;2.47;;;2.28;;
10212;SDS011;5150;51.400;6.692;2022-09-14T04:05:31;3.97;;;1.85;;
10212;SDS011;5150;51.400;6.692;2022-09-14T04:08:54;4.35;;;2.22;;
10212;SDS011;5150;51.400;6.692;2022-09-14T04:12:17;2.08;;;1.88;;
10212;SDS011;5150;51.400;6.692;2022-09-14T04:15:40;3.15;;;1.95;;
10212;SDS011;5150;51.400;6.692;2022-09-14T04:19:05;3.63;;;1.98;;
10212;SDS011;5150;51.400;6.692;2022-09-14T04:22:28;3.15;;;2.65;;
10212;SDS011;5150;51.400;6.692;2022-09-14T04:25:51;2.50;;;1.95;;
10212;SDS011;5150;51.400;6.692;2022-09-14T04:29:14;1.90;;;1.80;;
10212;SDS011;5150;51.400;6.692;2022-09-14T04:32:37;3.55;;;1.95;;
10212;SDS011;5150;51.400;6.692;2022-09-14T04:36:02;2.33;;;1.83;;
10212;SDS011;5150;51.400;6.692;2022-09-14T04:39:26;3.20;;;1.83;;
10212;SDS011;5150;51.400;6.692;2022-09-14T04:42:49;3.78;;;1.67;;
10212;SDS011;5150;51.400;6.692;2022-09-14T04:46:13;2.92;;;1.92;;
10212;SDS011;5150;51.400;6.692;2022-09-14T04:49:37;6.15;;;1.65;;
10212;SDS011;5150;51.400;6.692;2022-09-14T04:53:01;8.50;;;2.17;;
10212;SDS011;5150;51.400;6.692;2022-09-14T04:56:25;21.75;;;4.60;;
10212;SDS011;5150;51.400;6.692;2022-09-14T04:59:49;12.95;;;4.10;;
10212;SDS011;5150;51.400;6.692;2022-09-14T05:03:11;16.67;;;5.28;;
10212;SDS011;5150;51.400;6.692;2022-09-14T05:06:35;27.90;;;7.20;;
10212;SDS011;5150;51.400;6.692;2022-09-14T05:10:00;20.92;;;4.88;;
10212;SDS011;5150;51.400;6.692;2022-09-14T05:13:23;10.60;;;4.50;;
10212;SDS011;5150;51.400;6.692;2022-09-14T05:16:46;14.70;;;4.78;;
10212;SDS011;5150;51.400;6.692;2022-09-14T05:20:09;17.40;;;4.70;;
10212;SDS011;5150;51.400;6.692;2022-09-14T05:23:32;12.00;;;4.28;;
10212;SDS011;5150;51.400;6.692;2022-09-14T05:26:57;10.85;;;4.43;;
10212;SDS011;5150;51.400;6.692;2022-09-14T05:30:22;5.43;;;3.45;;
10212;SDS011;5150;51.400;6.692;2022-09-14T05:33:45;6.07;;;3.35;;
10212;SDS011;5150;51.400;6.692;2022-09-14T05:37:09;4.13;;;3.13;;
10212;SDS011;5150;51.400;6.692;2022-09-14T05:40:33;11.35;;;3.20;;
10212;SDS011;5150;51.400;6.692;2022-09-14T05:43:58;8.48;;;3.33;;
10212;SDS011;5150;51.400;6.692;2022-09-14T05:47:21;7.30;;;3.08;;
10212;SDS011;5150;51.400;6.692;2022-09-14T05:50:44;11.93;;;3.60;;
10212;SDS011;5150;51.400;6.692;2022-09-14T05:54:08;6.65;;;3.20;;
10212;SDS011;5150;51.400;6.692;2022-09-14T05:57:32;7.43;;;3.03;;
10212;SDS011;5150;51.400;6.692;2022-09-14T06:00:56;5.25;;;2.72;;
10212;SDS011;5150;51.400;6.692;2022-09-14T06:04:19;6.75;;;3.00;;
10212;SDS011;5150;51.400;6.692;2022-09-14T06:07:42;8.13;;;2.88;;
10212;SDS011;5150;51.400;6.692;2022-09-14T06:11:07;5.68;;;2.47;;
10212;SDS011;5150;51.400;6.692;2022-09-14T06:14:31;8.23;;;2.50;;
10212;SDS011;5150;51.400;6.692;2022-09-14T06:17:55;5.75;;;2.47;;
10212;SDS011;5150;51.400;6.692;2022-09-14T06:21:19;7.78;;;2.80;;
10212;SDS011;5150;51.400;6.692;2022-09-14T06:24:42;7.03;;;2.42;;
10212;SDS011;5150;51.400;6.692;2022-09-14T06:28:05;5.03;;;2.33;;
10212;SDS011;5150;51.400;6.692;2022-09-14T06:31:28;5.53;;;3.00;;
10212;SDS011;5150;51.400;6.692;2022-09-14T06:34:52;5.10;;;3.08;;
10212;SDS011;5150;51.400;6.692;2022-09-14T06:38:16;6.65;;;2.30;;
10212;SDS011;5150;51.400;6.692;2022-09-14T06:41:38;6.80;;;2.78;;
10212;SDS011;5150;51.400;6.692;2022-09-14T06:45:12;9.32;;;2.58;;
10212;SDS011;5150;51.400;6.692;2022-09-14T06:48:36;9.30;;;2.65;;
10212;SDS011;5150;51.400;6.692;2022-09-14T06:52:01;3.83;;;2.15;;
10212;SDS011;5150;51.400;6.692;2022-09-14T06:55:24;3.95;;;2.60;;
10212;SDS011;5150;51.400;6.692;2022-09-14T06:58:48;9.80;;;2.92;;
10212;SDS011;5150;51.400;6.692;2022-09-14T07:02:12;6.88;;;2.70;;
10212;SDS011;5150;51.400;6.692;2022-09-14T07:05:35;10.10;;;2.95;;
10212;SDS011;5150;51.400;6.692;2022-09-14T07:09:01;10.98;;;2.92;;
10212;SDS011;5150;51.400;6.692;2022-09-14T07:12:25;7.50;;;3.88;;
10212;SDS011;5150;51.400;6.692;2022-09-14T07:15:49;12.07;;;3.03;;
10212;SDS011;5150;51.400;6.692;2022-09-14T07:19:12;6.75;;;2.90;;
10212;SDS011;5150;51.400;6.692;2022-09-14T07:22:36;9.40;;;3.42;;
10212;SDS011;5150;51.400;6.692;2022-09-14T07:26:01;6.97;;;3.50;;
10212;SDS011;5150;51.400;6.692;2022-09-14T07:29:25;10.52;;;3.22;;
10212;SDS011;5150;51.400;6.692;2022-09-14T07:32:48;13.05;;;3.38;;
10212;SDS011;5150;51.400;6.692;2022-09-14T07:36:11;8.95;;;3.47;;
10212;SDS011;5150;51.400;6.692;2022-09-14T07:39:34;5.60;;;3.30;;
10212;SDS011;5150;51.400;6.692;2022-09-14T07:42:58;6.35;;;3.05;;
10212;SDS011;5150;51.400;6.692;2022-09-14T07:46:22;10.32;;;2.67;;
10212;SDS011;5150;51.400;6.692;2022-09-14T07:49:45;8.98;;;2.33;;
10212;SDS011;5150;51.400;6.692;2022-09-14T07:53:08;9.30;;;3.38;;
10212;SDS011;5150;51.400;6.692;2022-09-14T07:56:31;8.43;;;3.40;;
10212;SDS011;5150;51.400;6.692;2022-09-14T07:59:56;7.50;;;3.28;;
10212;SDS011;5150;51.400;6.692;2022-09-14T08:03:20;7.15;;;2.88;;
10212;SDS011;5150;51.400;6.692;2022-09-14T08:06:43;9.68;;;2.85;;
10212;SDS011;5150;51.400;6.692;2022-09-14T08:10:07;7.57;;;2.78;;
10212;SDS011;5150;51.400;6.692;2022-09-14T08:13:30;8.30;;;3.17;;
10212;SDS011;5150;51.400;6.692;2022-09-14T08:16:55;4.40;;;2.45;;
10212;SDS011;5150;51.400;6.692;2022-09-14T08:20:20;7.53;;;3.10;;
10212;SDS011;5150;51.400;6.692;2022-09-14T08:23:43;7.53;;;2.67;;
10212;SDS011;5150;51.400;6.692;2022-09-14T08:27:07;11.80;;;3.05;;
10212;SDS011;5150;51.400;6.692;2022-09-14T08:30:32;5.75;;;2.80;;
10212;SDS011;5150;51.400;6.692;2022-09-14T08:33:57;6.05;;;2.25;;
10212;SDS011;5150;51.400;6.692;2022-09-14T08:37:21;5.97;;;3.25;;
10212;SDS011;5150;51.400;6.692;2022-09-14T08:40:44;5.10;;;2.42;;
10212;SDS011;5150;51.400;6.692;2022-09-14T08:44:12;8.85;;;3.30;;
10212;SDS011;5150;51.400;6.692;2022-09-14T08:47:37;17.45;;;3.00;;
10212;SDS011;5150;51.400;6.692;2022-09-14T08:51:03;11.55;;;3.78;;
10212;SDS011;5150;51.400;6.692;2022-09-14T08:54:28;6.43;;;2.70;;
10212;SDS011;5150;51.400;6.692;2022-09-14T08:57:53;5.40;;;2.78;;
10212;SDS011;5150;51.400;6.692;2022-09-14T09:01:23;7.30;;;2.63;;
10212;SDS011;5150;51.400;6.692;2022-09-14T09:04:54;8.00;;;2.13;;
10212;SDS011;5150;51.400;6.692;2022-09-14T09:08:26;6.72;;;2.20;;
10212;SDS011;5150;51.400;6.692;2022-09-14T09:11:54;8.85;;;3.00;;
10212;SDS011;5150;51.400;6.692;2022-09-14T09:15:20;5.43;;;2.60;;
10212;SDS011;5150;51.400;6.692;2022-09-14T09:18:46;7.28;;;2.78;;
10212;SDS011;5150;51.400;6.692;2022-09-14T09:22:14;10.45;;;2.75;;
10212;SDS011;5150;51.400;6.692;2022-09-14T09:25:47;9.02;;;2.30;;
10212;SDS011;5150;51.400;6.692;2022-09-14T09:29:14;6.55;;;2.47;;
10212;SDS011;5150;51.400;6.692;2022-09-14T09:32:56;6.13;;;2.45;;
10212;SDS011;5150;51.400;6.692;2022-09-14T09:36:46;3.42;;;2.63;;
10212;SDS011;5150;51.400;6.692;2022-09-14T09:40:14;6.05;;;1.92;;
10212;SDS011;5150;51.400;6.692;2022-09-14T09:43:55;6.85;;;2.40;;
10212;SDS011;5150;51.400;6.692;2022-09-14T09:47:23;5.28;;;2.65;;
10212;SDS011;5150;51.400;6.692;2022-09-14T09:50:51;5.82;;;2.42;;
10212;SDS011;5150;51.400;6.692;2022-09-14T09:54:27;7.90;;;2.50;;
10212;SDS011;5150;51.400;6.692;2022-09-14T09:57:52;6.80;;;2.15;;
10212;SDS011;5150;51.400;6.692;2022-09-14T10:01:18;7.63;;;2.38;;
10212;SDS011;5150;51.400;6.692;2022-09-14T10:04:54;6.82;;;2.70;;
10212;SDS011;5150;51.400;6.692;2022-09-14T10:08:19;6.00;;;2.75;;
10212;SDS011;5150;51.400;6.692;2022-09-14T10:11:43;3.22;;;1.85;;
10212;SDS011;5150;51.400;6.692;2022-09-14T10:15:13;4.95;;;2.28;;
10212;SDS011;5150;51.400;6.692;2022-09-14T10:18:42;7.15;;;2.92;;
10212;SDS011;5150;51.400;6.692;2022-09-14T10:22:16;6.70;;;2.75;;
10212;SDS011;5150;51.400;6.692;2022-09-14T10:25:47;11.98;;;3.10;;
10212;SDS011;5150;51.400;6.692;2022-09-14T10:29:26;12.38;;;3.33;;
10212;SDS011;5150;51.400;6.692;2022-09-14T10:32:58;8.65;;;3.00;;
10212;SDS011;5150;51.400;6.692;2022-09-14T10:36:24;9.55;;;3.10;;
10212;SDS011;5150;51.400;6.692;2022-09-14T10:39:52;8.20;;;2.70;;
10212;SDS011;5150;51.400;6.692;2022-09-14T10:43:35;9.02;;;2.60;;
10212;SDS011;5150;51.400;6.692;2022-09-14T10:47:16;8.68;;;3.00;;
10212;SDS011;5150;51.400;6.692;2022-09-14T10:50:50;7.90;;;2.45;;
10212;SDS011;5150;51.400;6.692;2022-09-14T10:54:34;8.00;;;2.85;;
10212;SDS011;5150;51.400;6.692;2022-09-14T10:58:18;6.95;;;2.92;;
10212;SDS011;5150;51.400;6.692;2022-09-14T11:02:00;5.40;;;2.67;;
10212;SDS011;5150;51.400;6.692;2022-09-14T11:05:46;4.43;;;2.08;;
10212;SDS011;5150;51.400;6.692;2022-09-14T11:09:20;6.43;;;2.03;;
10212;SDS011;5150;51.400;6.692;2022-09-14T11:12:48;9.32;;;2.72;;
10212;SDS011;5150;51.400;6.692;2022-09-14T11:16:20;7.22;;;2.40;;
10212;SDS011;5150;51.400;6.692;2022-09-14T11:20:04;5.97;;;2.25;;
10212;SDS011;5150;51.400;6.692;2022-09-14T11:23:39;6.50;;;3.17;;
10212;SDS011;5150;51.400;6.692;2022-09-14T11:27:11;6.40;;;2.55;;
10212;SDS011;5150;51.400;6.692;2022-09-14T11:30:43;10.30;;;3.33;;
10212;SDS011;5150;51.400;6.692;2022-09-14T11:34:14;11.73;;;2.10;;
10212;SDS011;5150;51.400;6.692;2022-09-14T11:37:44;7.93;;;2.60;;
10212;SDS011;5150;51.400;6.692;2022-09-14T11:41:15;4.63;;;2.25;;
10212;SDS011;5150;51.400;6.692;2022-09-14T11:44:44;4.38;;;2.03;;
10212;SDS011;5150;51.400;6.692;2022-09-14T11:48:12;7.15;;;2.63;;
10212;SDS011;5150;51.400;6.692;2022-09-14T11:52:06;8.40;;;3.03;;
10212;SDS011;5150;51.400;6.692;2022-09-14T11:55:35;7.03;;;2.67;;
10212;SDS011;5150;51.400;6.692;2022-09-14T11:59:02;7.50;;;2.33;;
10212;SDS011;5150;51.400;6.692;2022-09-14T12:10:19;7.40;;;2.38;;
10212;SDS011;5150;51.400;6.692;2022-09-14T12:13:42;12.25;;;2.83;;
10212;SDS011;5150;51.400;6.692;2022-09-14T12:17:15;5.20;;;2.90;;
10212;SDS011;5150;51.400;6.692;2022-09-14T12:21:03;9.85;;;3.00;;
10212;SDS011;5150;51.400;6.692;2022-09-14T12:24:29;6.32;;;2.65;;
10212;SDS011;5150;51.400;6.692;2022-09-14T12:27:53;9.93;;;2.80;;
10212;SDS011;5150;51.400;6.692;2022-09-14T12:35:34;7.28;;;2.90;;
10212;SDS011;5150;51.400;6.692;2022-09-14T12:39:18;8.63;;;3.08;;
10212;SDS011;5150;51.400;6.692;2022-09-14T12:42:43;8.63;;;3.67;;
10212;SDS011;5150;51.400;6.692;2022-09-14T12:46:08;11.18;;;2.92;;
10212;SDS011;5150;51.400;6.692;2022-09-14T12:49:51;11.27;;;3.00;;
10212;SDS011;5150;51.400;6.692;2022-09-14T12:53:20;8.35;;;2.60;;
10212;SDS011;5150;51.400;6.692;2022-09-14T12:56:52;10.10;;;3.30;;
10212;SDS011;5150;51.400;6.692;2022-09-14T13:00:23;5.40;;;2.67;;
10212;SDS011;5150;51.400;6.692;2022-09-14T13:03:50;6.35;;;2.92;;
10212;SDS011;5150;51.400;6.692;2022-09-14T13:07:15;9.52;;;3.17;;
10212;SDS011;5150;51.400;6.692;2022-09-14T13:10:43;4.90;;;3.00;;
10212;SDS011;5150;51.400;6.692;2022-09-14T13:14:11;6.97;;;3.13;;
10212;SDS011;5150;51.400;6.692;2022-09-14T13:17:38;13.68;;;2.90;;
10212;SDS011;5150;51.400;6.692;2022-09-14T13:21:19;4.78;;;2.55;;
10212;SDS011;5150;51.400;6.692;2022-09-14T13:24:44;8.18;;;2.90;;
10212;SDS011;5150;51.400;6.692;2022-09-14T13:28:12;5.85;;;2.35;;
10212;SDS011;5150;51.400;6.692;2022-09-14T13:31:37;7.97;;;2.95;;
10212;SDS011;5150;51.400;6.692;2022-09-14T13:35:02;11.85;;;3.08;;
10212;SDS011;5150;51.400;6.692;2022-09-14T13:38:29;10.27;;;3.28;;
10212;SDS011;5150;51.400;6.692;2022-09-14T13:41:55;11.93;;;2.75;;
10212;SDS011;5150;51.400;6.692;2022-09-14T13:45:19;6.45;;;2.78;;
10212;SDS011;5150;51.400;6.692;2022-09-14T13:48:43;7.20;;;3.03;;
10212;SDS011;5150;51.400;6.692;2022-09-14T13:52:25;9.05;;;3.05;;
10212;SDS011;5150;51.400;6.692;2022-09-14T13:56:16;9.18;;;3.13;;
10212;SDS011;5150;51.400;6.692;2022-09-14T14:03:40;15.00;;;2.78;;
10212;SDS011;5150;51.400;6.692;2022-09-14T14:07:14;7.38;;;3.28;;
10212;SDS011;5150;51.400;6.692;2022-09-14T14:10:44;8.68;;;2.60;;
10212;SDS011;5150;51.400;6.692;2022-09-14T14:14:17;7.38;;;2.58;;
10212;SDS011;5150;51.400;6.692;2022-09-14T14:17:46;5.00;;;2.58;;
10212;SDS011;5150;51.400;6.692;2022-09-14T14:21:22;7.22;;;3.03;;
10212;SDS011;5150;51.400;6.692;2022-09-14T14:24:48;6.57;;;3.25;;
10212;SDS011;5150;51.400;6.692;2022-09-14T14:28:32;9.13;;;3.25;;
10212;SDS011;5150;51.400;6.692;2022-09-14T14:31:56;8.63;;;3.13;;
10212;SDS011;5150;51.400;6.692;2022-09-14T14:35:20;8.55;;;3.22;;
10212;SDS011;5150;51.400;6.692;2022-09-14T14:38:47;6.35;;;2.83;;
10212;SDS011;5150;51.400;6.692;2022-09-14T14:42:11;11.38;;;3.90;;
10212;SDS011;5150;51.400;6.692;2022-09-14T14:45:35;6.60;;;2.78;;
10212;SDS011;5150;51.400;6.692;2022-09-14T14:48:59;8.25;;;2.42;;
10212;SDS011;5150;51.400;6.692;2022-09-14T14:52:22;3.67;;;2.50;;
10212;SDS011;5150;51.400;6.692;2022-09-14T14:55:45;9.02;;;3.00;;
10212;SDS011;5150;51.400;6.692;2022-09-14T14:59:15;9.88;;;2.60;;
10212;SDS011;5150;51.400;6.692;2022-09-14T15:02:48;7.53;;;3.05;;
10212;SDS011;5150;51.400;6.692;2022-09-14T15:06:13;6.93;;;2.35;;
10212;SDS011;5150;51.400;6.692;2022-09-14T15:09:40;7.55;;;3.00;;
10212;SDS011;5150;51.400;6.692;2022-09-14T15:13:03;9.65;;;3.20;;
10212;SDS011;5150;51.400;6.692;2022-09-14T15:16:26;6.78;;;3.10;;
10212;SDS011;5150;51.400;6.692;2022-09-14T15:19:49;11.18;;;4.28;;
10212;SDS011;5150;51.400;6.692;2022-09-14T15:23:15;9.60;;;3.10;;
10212;SDS011;5150;51.400;6.692;2022-09-14T15:26:38;7.50;;;2.70;;
10212;SDS011;5150;51.400;6.692;2022-09-14T15:30:01;7.47;;;2.97;;
10212;SDS011;5150;51.400;6.692;2022-09-14T15:33:25;8.15;;;3.40;;
10212;SDS011;5150;51.400;6.692;2022-09-14T15:36:48;7.53;;;3.22;;
10212;SDS011;5150;51.400;6.692;2022-09-14T15:40:15;9.07;;;2.60;;
10212;SDS011;5150;51.400;6.692;2022-09-14T15:43:38;8.15;;;3.25;;
10212;SDS011;5150;51.400;6.692;2022-09-14T15:47:01;6.75;;;2.63;;
10212;SDS011;5150;51.400;6.692;2022-09-14T15:50:24;5.25;;;2.70;;
10212;SDS011;5150;51.400;6.692;2022-09-14T15:53:47;7.88;;;2.58;;
10212;SDS011;5150;51.400;6.692;2022-09-14T15:57:14;11.35;;;3.83;;
10212;SDS011;5150;51.400;6.692;2022-09-14T16:00:40;8.35;;;3.00;;
10212;SDS011;5150;51.400;6.692;2022-09-14T16:04:04;12.13;;;3.17;;
10212;SDS011;5150;51.400;6.692;2022-09-14T16:07:32;11.32;;;3.40;;
10212;SDS011;5150;51.400;6.692;2022-09-14T16:10:55;12.15;;;3.08;;
10212;SDS011;5150;51.400;6.692;2022-09-14T16:14:20;6.95;;;2.85;;
10212;SDS011;5150;51.400;6.692;2022-09-14T16:17:47;5.72;;;2.75;;
10212;SDS011;5150;51.400;6.692;2022-09-14T16:21:11;9.48;;;2.95;;
10212;SDS011;5150;51.400;6.692;2022-09-14T16:24:36;9.20;;;3.50;;
10212;SDS011;5150;51.400;6.692;2022-09-14T16:28:00;5.88;;;2.85;;
10212;SDS011;5150;51.400;6.692;2022-09-14T16:31:25;4.25;;;3.10;;
10212;SDS011;5150;51.400;6.692;2022-09-14T16:34:49;6.93;;;2.65;;
10212;SDS011;5150;51.400;6.692;2022-09-14T16:38:12;5.90;;;2.65;;
10212;SDS011;5150;51.400;6.692;2022-09-14T16:41:36;7.97;;;2.83;;
10212;SDS011;5150;51.400;6.692;2022-09-14T16:45:02;7.60;;;2.65;;
10212;SDS011;5150;51.400;6.692;2022-09-14T16:48:26;8.38;;;3.33;;
10212;SDS011;5150;51.400;6.692;2022-09-14T16:51:49;9.20;;;2.85;;
10212;SDS011;5150;51.400;6.692;2022-09-14T16:55:12;9.48;;;3.47;;
10212;SDS011;5150;51.400;6.692;2022-09-14T16:58:36;4.95;;;2.63;;
10212;SDS011;5150;51.400;6.692;2022-09-14T17:01:59;7.03;;;2.95;;
10212;SDS011;5150;51.400;6.692;2022-09-14T17:05:24;7.20;;;3.58;;
10212;SDS011;5150;51.400;6.692;2022-09-14T17:08:47;8.95;;;3.33;;
10212;SDS011;5150;51.400;6.692;2022-09-14T17:12:10;6.85;;;2.38;;
10212;SDS011;5150;51.400;6.692;2022-09-14T17:15:33;15.43;;;2.78;;
10212;SDS011;5150;51.400;6.692;2022-09-14T17:18:58;7.10;;;2.83;;
10212;SDS011;5150;51.400;6.692;2022-09-14T17:22:23;11.90;;;2.78;;
10212;SDS011;5150;51.400;6.692;2022-09-14T17:25:46;3.65;;;2.47;;
10212;SDS011;5150;51.400;6.692;2022-09-14T17:29:09;6.80;;;2.88;;
10212;SDS011;5150;51.400;6.692;2022-09-14T17:32:32;6.80;;;3.15;;
10212;SDS011;5150;51.400;6.692;2022-09-14T17:35:57;10.90;;;3.33;;
10212;SDS011;5150;51.400;6.692;2022-09-14T17:39:21;6.65;;;2.55;;
10212;SDS011;5150;51.400;6.692;2022-09-14T17:42:44;7.10;;;2.50;;
10212;SDS011;5150;51.400;6.692;2022-09-14T17:46:10;9.98;;;3.05;;
10212;SDS011;5150;51.400;6.692;2022-09-14T17:49:34;8.13;;;2.60;;
10212;SDS011;5150;51.400;6.692;2022-09-14T17:52:57;5.53;;;3.08;;
10212;SDS011;5150;51.400;6.692;2022-09-14T17:56:22;5.60;;;2.40;;
10212;SDS011;5150;51.400;6.692;2022-09-14T17:59:46;9.13;;;2.75;;
10212;SDS011;5150;51.400;6.692;2022-09-14T18:03:09;6.95;;;2.95;;
10212;SDS011;5150;51.400;6.692;2022-09-14T18:06:33;8.43;;;3.30;;
10212;SDS011;5150;51.400;6.692;2022-09-14T18:09:58;7.47;;;3.22;;
10212;SDS011;5150;51.400;6.692;2022-09-14T18:13:23;17.08;;;3.05;;
10212;SDS011;5150;51.400;6.692;2022-09-14T18:16:50;7.30;;;3.40;;
10212;SDS011;5150;51.400;6.692;2022-09-14T18:20:13;4.65;;;3.05;;
10212;SDS011;5150;51.400;6.692;2022-09-14T18:23:36;9.10;;;3.45;;
10212;SDS011;5150;51.400;6.692;2022-09-14T18:26:59;10.43;;;4.10;;
10212;SDS011;5150;51.400;6.692;2022-09-14T18:30:24;9.80;;;2.88;;
10212;SDS011;5150;51.400;6.692;2022-09-14T18:33:47;10.10;;;3.45;;
10212;SDS011;5150;51.400;6.692;2022-09-14T18:37:12;8.90;;;3.28;;
10212;SDS011;5150;51.400;6.692;2022-09-14T18:40:35;8.65;;;3.00;;
10212;SDS011;5150;51.400;6.692;2022-09-14T18:43:59;7.63;;;2.95;;
10212;SDS011;5150;51.400;6.692;2022-09-14T18:47:24;7.55;;;2.38;;
10212;SDS011;5150;51.400;6.692;2022-09-14T18:50:47;5.00;;;2.63;;
10212;SDS011;5150;51.400;6.692;2022-09-14T18:54:11;8.88;;;3.40;;
10212;SDS011;5150;51.400;6.692;2022-09-14T18:57:35;6.93;;;3.00;;
10212;SDS011;5150;51.400;6.692;2022-09-14T19:00:57;4.53;;;2.65;;
10212;SDS011;5150;51.400;6.692;2022-09-14T19:04:22;6.85;;;2.55;;
10212;SDS011;5150;51.400;6.692;2022-09-14T19:07:45;10.57;;;3.22;;
10212;SDS011;5150;51.400;6.692;2022-09-14T19:11:08;6.05;;;2.95;;
10212;SDS011;5150;51.400;6.692;2022-09-14T19:14:32;7.40;;;3.17;;
10212;SDS011;5150;51.400;6.692;2022-09-14T19:17:55;7.43;;;2.72;;
10212;SDS011;5150;51.400;6.692;2022-09-14T19:21:21;8.07;;;3.05;;
10212;SDS011;5150;51.400;6.692;2022-09-14T19:24:45;14.82;;;3.00;;
10212;SDS011;5150;51.400;6.692;2022-09-14T19:28:08;8.82;;;3.15;;
10212;SDS011;5150;51.400;6.692;2022-09-14T19:31:32;7.20;;;2.72;;
10212;SDS011;5150;51.400;6.692;2022-09-14T19:34:55;7.97;;;3.35;;
10212;SDS011;5150;51.400;6.692;2022-09-14T19:38:20;6.10;;;3.33;;
10212;SDS011;5150;51.400;6.692;2022-09-14T19:41:43;11.25;;;3.72;;
10212;SDS011;5150;51.400;6.692;2022-09-14T19:45:06;8.73;;;3.17;;
10212;SDS011;5150;51.400;6.692;2022-09-14T19:48:30;6.15;;;2.63;;
10212;SDS011;5150;51.400;6.692;2022-09-14T19:51:54;8.60;;;3.22;;
10212;SDS011;5150;51.400;6.692;2022-09-14T19:55:18;5.70;;;3.03;;
10212;SDS011;5150;51.400;6.692;2022-09-14T19:58:42;3.90;;;2.80;;
10212;SDS011;5150;51.400;6.692;2022-09-14T20:02:08;8.75;;;3.20;;
10212;SDS011;5150;51.400;6.692;2022-09-14T20:05:32;7.72;;;3.20;;
10212;SDS011;5150;51.400;6.692;2022-09-14T20:08:56;7.35;;;2.80;;
10212;SDS011;5150;51.400;6.692;2022-09-14T20:12:21;7.15;;;2.90;;
10212;SDS011;5150;51.400;6.692;2022-09-14T20:15:44;4.70;;;2.22;;
10212;SDS011;5150;51.400;6.692;2022-09-14T20:19:08;4.35;;;2.92;;
10212;SDS011;5150;51.400;6.692;2022-09-14T20:22:33;8.82;;;2.83;;
10212;SDS011;5150;51.400;6.692;2022-09-14T20:26:00;6.85;;;3.17;;
10212;SDS011;5150;51.400;6.692;2022-09-14T20:29:26;4.53;;;2.60;;
10212;SDS011;5150;51.400;6.692;2022-09-14T20:32:50;4.55;;;2.90;;
10212;SDS011;5150;51.400;6.692;2022-09-14T20:36:14;4.70;;;2.63;;
10212;SDS011;5150;51.400;6.692;2022-09-14T20:39:39;5.63;;;3.05;;
10212;SDS011;5150;51.400;6.692;2022-09-14T20:43:02;4.72;;;2.63;;
10212;SDS011;5150;51.400;6.692;2022-09-14T20:46:27;4.22;;;2.50;;
10212;SDS011;5150;51.400;6.692;2022-09-14T20:49:52;6.82;;;2.50;;
10212;SDS011;5150;51.400;6.692;2022-09-14T20:53:15;4.25;;;2.80;;
10212;SDS011;5150;51.400;6.692;2022-09-14T20:56:38;3.53;;;3.00;;
10212;SDS011;5150;51.400;6.692;2022-09-14T21:00:02;5.10;;;2.95;;
10212;SDS011;5150;51.400;6.692;2022-09-14T21:03:26;6.22;;;2.83;;
10212;SDS011;5150;51.400;6.692;2022-09-14T21:06:50;5.35;;;2.60;;
10212;SDS011;5150;51.400;6.692;2022-09-14T21:10:14;7.88;;;2.45;;
10212;SDS011;5150;51.400;6.692;2022-09-14T21:13:38;4.80;;;2.85;;
10212;SDS011;5150;51.400;6.692;2022-09-14T21:17:01;3.83;;;2.60;;